createdAt,value
2024-05-09T00:00:35.235Z,263.33
2024-05-09T00:01:10.103Z,264.00
2024-05-09T00:01:40.943Z,264.00
2024-05-09T00:02:11.770Z,264.00
2024-05-09T00:02:42.511Z,264.00
2024-05-09T00:03:13.410Z,264.67
2024-05-09T00:03:45.718Z,265.67
2024-05-09T00:04:16.504Z,266.67
2024-05-09T00:04:47.304Z,268.33
2024-05-09T00:05:18.193Z,269.67
2024-05-09T00:05:49.032Z,270.00
2024-05-09T00:06:19.803Z,270.00
2024-05-09T00:06:50.514Z,269.67
2024-05-09T00:07:21.239Z,269.00
2024-05-09T00:07:52.064Z,270.00
2024-05-09T00:08:23.007Z,271.00
2024-05-09T00:08:53.841Z,272.00
2024-05-09T00:09:24.622Z,274.00
2024-05-09T00:09:55.362Z,275.67
2024-05-09T00:10:35.044Z,275.67
2024-05-09T00:11:08.496Z,275.00
2024-05-09T00:11:39.364Z,274.00
2024-05-09T00:12:10.297Z,274.00
2024-05-09T00:12:41.102Z,273.00
2024-05-09T00:13:11.826Z,273.00
2024-05-09T00:13:42.616Z,273.00
2024-05-09T00:14:13.398Z,273.00
2024-05-09T00:14:44.148Z,273.00
2024-05-09T00:15:14.901Z,272.33
2024-05-09T00:15:45.621Z,272.00
2024-05-09T00:16:16.349Z,271.67
2024-05-09T00:16:48.576Z,270.67
2024-05-09T00:17:19.444Z,269.33
2024-05-09T00:17:53.219Z,269.00
2024-05-09T00:18:24.247Z,268.00
2024-05-09T00:18:55.036Z,268.00
2024-05-09T00:19:26.471Z,268.00
2024-05-09T00:19:57.246Z,268.00
2024-05-09T00:20:36.219Z,268.00
2024-05-09T00:21:10.339Z,268.00
2024-05-09T00:21:43.716Z,268.00
2024-05-09T00:22:14.495Z,268.00
2024-05-09T00:22:45.293Z,268.00
2024-05-09T00:23:16.283Z,268.00
2024-05-09T00:23:47.109Z,268.67
2024-05-09T00:24:17.843Z,269.00
2024-05-09T00:24:48.567Z,269.00
2024-05-09T00:25:19.310Z,269.00
2024-05-09T00:25:50.147Z,269.00
2024-05-09T00:26:21.050Z,269.00
2024-05-09T00:26:51.807Z,269.00
2024-05-09T00:27:22.565Z,269.00
2024-05-09T00:27:53.276Z,268.67
2024-05-09T00:28:24.732Z,268.00
2024-05-09T00:28:55.578Z,268.00
2024-05-09T00:29:26.394Z,267.33
2024-05-09T00:29:57.203Z,267.00
2024-05-09T00:30:33.949Z,267.00
2024-05-09T00:31:07.043Z,268.00
2024-05-09T00:31:37.771Z,268.67
2024-05-09T00:32:08.620Z,269.00
2024-05-09T00:32:39.583Z,269.00
2024-05-09T00:33:11.492Z,268.33
2024-05-09T00:33:42.883Z,267.33
2024-05-09T00:34:13.951Z,265.67
2024-05-09T00:34:45.156Z,263.00
2024-05-09T00:35:15.987Z,260.33
2024-05-09T00:35:46.821Z,257.67
2024-05-09T00:36:17.553Z,254.00
2024-05-09T00:36:48.535Z,251.00
2024-05-09T00:37:19.465Z,249.00
2024-05-09T00:37:50.230Z,245.00
2024-05-09T00:38:21.194Z,240.33
2024-05-09T00:38:52.021Z,238.00
2024-05-09T00:39:22.746Z,237.67
2024-05-09T00:39:53.462Z,238.00
2024-05-09T00:40:34.755Z,238.67
2024-05-09T00:41:09.616Z,239.00
2024-05-09T00:41:40.474Z,239.33
2024-05-09T00:42:11.220Z,240.00
2024-05-09T00:42:41.933Z,240.67
2024-05-09T00:43:14.100Z,241.67
2024-05-09T00:43:45.733Z,242.33
2024-05-09T00:44:16.510Z,243.00
2024-05-09T00:44:47.309Z,243.00
2024-05-09T00:45:18.026Z,243.00
2024-05-09T00:45:48.762Z,243.00
2024-05-09T00:46:19.912Z,243.67
2024-05-09T00:46:53.551Z,244.00
2024-05-09T00:47:24.771Z,243.33
2024-05-09T00:47:58.615Z,242.33
2024-05-09T00:48:30.103Z,241.67
2024-05-09T00:49:01.168Z,240.67
2024-05-09T00:49:32.736Z,240.00
2024-05-09T00:50:05.537Z,240.00
2024-05-09T00:50:41.399Z,240.00
2024-05-09T00:51:12.871Z,240.00
2024-05-09T00:51:44.616Z,240.00
2024-05-09T00:52:15.663Z,240.00
2024-05-09T00:52:47.709Z,240.00
2024-05-09T00:53:18.851Z,240.33
2024-05-09T00:53:49.722Z,241.00
2024-05-09T00:54:22.086Z,241.33
2024-05-09T00:54:55.209Z,242.67
2024-05-09T00:55:29.929Z,244.00
2024-05-09T00:56:04.159Z,244.67
2024-05-09T00:56:35.398Z,245.00
2024-05-09T00:57:06.262Z,244.33
2024-05-09T00:57:38.656Z,244.00
2024-05-09T00:58:12.251Z,243.33
2024-05-09T00:58:43.046Z,243.00
2024-05-09T00:59:14.733Z,243.00
2024-05-09T00:59:46.500Z,243.00
2024-05-09T01:00:26.514Z,243.00
2024-05-09T01:01:05.220Z,243.00
2024-05-09T01:01:36.121Z,243.00
2024-05-09T01:02:09.248Z,243.00
2024-05-09T01:02:40.122Z,243.00
2024-05-09T01:03:13.038Z,244.00
2024-05-09T01:03:46.643Z,244.67
2024-05-09T01:04:18.881Z,247.00
2024-05-09T01:04:49.870Z,250.00
2024-05-09T01:05:20.749Z,253.67
2024-05-09T01:05:51.561Z,257.00
2024-05-09T01:06:22.404Z,260.67
2024-05-09T01:06:53.181Z,265.67
2024-05-09T01:07:24.389Z,269.00
2024-05-09T01:07:55.114Z,272.00
2024-05-09T01:08:26.303Z,274.00
2024-05-09T01:08:57.067Z,277.00
2024-05-09T01:09:27.788Z,282.00
2024-05-09T01:09:58.578Z,286.67
2024-05-09T01:10:34.172Z,288.00
2024-05-09T01:11:06.657Z,288.00
2024-05-09T01:11:39.212Z,288.00
2024-05-09T01:12:10.159Z,286.33
2024-05-09T01:12:40.998Z,286.33
2024-05-09T01:13:11.755Z,287.33
2024-05-09T01:13:43.699Z,288.67
2024-05-09T01:14:14.439Z,289.00
2024-05-09T01:14:45.184Z,288.67
2024-05-09T01:15:15.903Z,287.67
2024-05-09T01:15:48.925Z,286.67
2024-05-09T01:16:19.797Z,286.33
2024-05-09T01:16:50.584Z,287.00
2024-05-09T01:17:21.486Z,286.00
2024-05-09T01:17:54.274Z,285.33
2024-05-09T01:18:25.685Z,285.00
2024-05-09T01:18:57.854Z,285.00
2024-05-09T01:19:29.698Z,285.67
2024-05-09T01:20:00.605Z,286.67
2024-05-09T01:20:39.915Z,288.00
2024-05-09T01:21:14.067Z,289.67
2024-05-09T01:21:44.982Z,290.67
2024-05-09T01:22:15.697Z,290.00
2024-05-09T01:22:46.814Z,289.33
2024-05-09T01:23:17.589Z,289.00
2024-05-09T01:23:48.348Z,288.67
2024-05-09T01:24:19.350Z,288.00
2024-05-09T01:24:53.774Z,288.00
2024-05-09T01:25:24.503Z,287.33
2024-05-09T01:25:55.300Z,287.00
2024-05-09T01:26:26.117Z,287.00
2024-05-09T01:26:56.851Z,287.00
2024-05-09T01:27:29.662Z,287.00
2024-05-09T01:28:00.930Z,286.33
2024-05-09T01:28:31.649Z,286.00
2024-05-09T01:29:02.536Z,286.00
2024-05-09T01:29:33.372Z,286.00
2024-05-09T01:30:09.135Z,286.00
2024-05-09T01:30:40.271Z,286.00
2024-05-09T01:31:14.968Z,286.33
2024-05-09T01:31:46.705Z,287.00
2024-05-09T01:32:17.573Z,287.00
2024-05-09T01:32:48.520Z,287.00
2024-05-09T01:33:19.433Z,287.00
2024-05-09T01:33:50.448Z,288.00
2024-05-09T01:34:21.374Z,289.33
2024-05-09T01:34:52.254Z,292.00
2024-05-09T01:35:23.113Z,294.33
2024-05-09T01:35:53.873Z,295.00
2024-05-09T01:36:24.658Z,295.00
2024-05-09T01:36:55.364Z,295.00
2024-05-09T01:37:26.080Z,295.00
2024-05-09T01:37:56.841Z,295.00
2024-05-09T01:38:27.614Z,295.00
2024-05-09T01:38:58.364Z,295.00
2024-05-09T01:39:29.110Z,295.00
2024-05-09T01:39:59.886Z,295.00
2024-05-09T01:41:06.274Z,295.67
2024-05-09T01:41:37.087Z,297.33
2024-05-09T01:42:07.856Z,300.00
2024-05-09T01:42:41.576Z,302.33
2024-05-09T01:43:12.536Z,303.67
2024-05-09T01:43:43.317Z,305.33
2024-05-09T01:44:14.106Z,307.00
2024-05-09T01:44:45.722Z,307.00
2024-05-09T01:45:17.390Z,307.00
2024-05-09T01:45:48.109Z,307.00
2024-05-09T01:46:18.839Z,308.33
2024-05-09T01:46:49.591Z,309.00
2024-05-09T01:47:20.459Z,309.00
2024-05-09T01:47:51.641Z,308.00
2024-05-09T01:48:22.630Z,308.00
2024-05-09T01:48:53.594Z,308.00
2024-05-09T01:49:24.472Z,308.00
2024-05-09T01:49:55.240Z,308.67
2024-05-09T01:50:37.132Z,309.33
2024-05-09T01:51:11.663Z,310.67
2024-05-09T01:51:42.591Z,311.00
2024-05-09T01:52:13.319Z,311.67
2024-05-09T01:52:44.051Z,312.00
2024-05-09T01:53:15.408Z,312.00
2024-05-09T01:53:46.485Z,312.00
2024-05-09T01:54:17.235Z,311.00
2024-05-09T01:54:47.957Z,311.00
2024-05-09T01:55:18.673Z,311.00
2024-05-09T01:55:49.410Z,312.00
2024-05-09T01:56:20.226Z,312.00
2024-05-09T01:56:51.009Z,312.00
2024-05-09T01:57:21.732Z,311.00
2024-05-09T01:57:52.466Z,311.00
2024-05-09T01:58:23.559Z,311.00
2024-05-09T01:58:54.344Z,311.00
2024-05-09T01:59:25.297Z,310.00
2024-05-09T01:59:56.060Z,310.00
2024-05-09T02:00:37.087Z,308.67
2024-05-09T02:01:11.533Z,307.67
2024-05-09T02:01:56.128Z,307.00
2024-05-09T02:02:28.456Z,307.00
2024-05-09T02:02:59.353Z,306.00
2024-05-09T02:03:30.286Z,306.00
2024-05-09T02:04:01.374Z,306.00
2024-05-09T02:04:32.392Z,305.00
2024-05-09T02:05:03.584Z,304.33
2024-05-09T02:05:34.598Z,302.67
2024-05-09T02:06:05.775Z,302.00
2024-05-09T02:06:40.594Z,301.00
2024-05-09T02:07:11.323Z,299.00
2024-05-09T02:07:42.065Z,296.00
2024-05-09T02:08:17.572Z,294.00
2024-05-09T02:08:49.098Z,292.67
2024-05-09T02:09:19.828Z,292.00
2024-05-09T02:09:51.909Z,292.67
2024-05-09T02:10:26.629Z,293.00
2024-05-09T02:11:03.157Z,294.00
2024-05-09T02:11:42.316Z,294.67
2024-05-09T02:12:13.229Z,297.00
2024-05-09T02:12:44.034Z,300.67
2024-05-09T02:13:15.000Z,306.33
2024-05-09T02:13:45.796Z,313.00
2024-05-09T02:14:19.430Z,318.00
2024-05-09T02:14:50.807Z,321.67
2024-05-09T02:15:21.515Z,323.00
2024-05-09T02:15:52.479Z,322.33
2024-05-09T02:16:23.279Z,322.00
2024-05-09T02:16:54.057Z,321.67
2024-05-09T02:17:25.010Z,320.67
2024-05-09T02:17:56.067Z,320.00
2024-05-09T02:18:26.922Z,320.00
2024-05-09T02:18:57.905Z,319.00
2024-05-09T02:19:28.759Z,319.00
2024-05-09T02:19:59.555Z,318.67
2024-05-09T02:20:35.991Z,318.00
2024-05-09T02:21:08.204Z,318.00
2024-05-09T02:21:39.305Z,319.00
2024-05-09T02:22:10.119Z,319.00
2024-05-09T02:22:40.894Z,319.00
2024-05-09T02:23:12.867Z,319.00
2024-05-09T02:23:43.758Z,318.00
2024-05-09T02:24:14.548Z,318.00
2024-05-09T02:24:45.261Z,318.00
2024-05-09T02:25:15.987Z,318.00
2024-05-09T02:25:46.955Z,318.00
2024-05-09T02:26:17.821Z,319.00
2024-05-09T02:26:48.544Z,319.00
2024-05-09T02:27:19.275Z,319.00
2024-05-09T02:27:50.072Z,319.00
2024-05-09T02:28:20.827Z,319.00
2024-05-09T02:28:51.566Z,319.00
2024-05-09T02:29:22.406Z,319.00
2024-05-09T02:29:53.165Z,319.00
2024-05-09T02:30:31.037Z,319.00
2024-05-09T02:31:12.474Z,320.00
2024-05-09T02:31:43.767Z,320.00
2024-05-09T02:32:14.601Z,321.00
2024-05-09T02:32:45.671Z,321.00
2024-05-09T02:33:16.673Z,321.00
2024-05-09T02:33:47.836Z,321.00
2024-05-09T02:34:18.833Z,321.00
2024-05-09T02:34:49.662Z,321.00
2024-05-09T02:35:20.491Z,321.00
2024-05-09T02:35:51.225Z,321.00
2024-05-09T02:36:21.947Z,321.00
2024-05-09T02:36:54.990Z,321.00
2024-05-09T02:37:25.709Z,321.00
2024-05-09T02:37:56.649Z,321.00
2024-05-09T02:38:27.488Z,321.00
2024-05-09T02:38:58.260Z,321.00
2024-05-09T02:39:28.991Z,321.33
2024-05-09T02:39:59.723Z,322.00
2024-05-09T02:41:03.556Z,323.00
2024-05-09T02:41:34.359Z,323.00
2024-05-09T02:42:05.153Z,323.00
2024-05-09T02:42:35.886Z,323.00
2024-05-09T02:43:07.999Z,322.67
2024-05-09T02:43:39.266Z,322.00
2024-05-09T02:44:10.054Z,321.33
2024-05-09T02:44:41.090Z,320.33
2024-05-09T02:45:14.513Z,318.67
2024-05-09T02:45:45.281Z,316.00
2024-05-09T02:46:16.003Z,312.00
2024-05-09T02:46:46.715Z,307.33
2024-05-09T02:47:17.611Z,304.00
2024-05-09T02:47:48.859Z,301.00
2024-05-09T02:48:19.953Z,298.67
2024-05-09T02:48:50.865Z,295.33
2024-05-09T02:49:21.975Z,291.33
2024-05-09T02:49:53.575Z,287.00
2024-05-09T02:50:33.110Z,285.00
2024-05-09T02:51:08.401Z,283.67
2024-05-09T02:51:39.217Z,281.00
2024-05-09T02:52:09.966Z,278.67
2024-05-09T02:52:40.684Z,275.67
2024-05-09T02:53:12.374Z,273.67
2024-05-09T02:53:43.255Z,272.00
2024-05-09T02:54:13.992Z,272.00
2024-05-09T02:54:44.783Z,273.00
2024-05-09T02:55:15.526Z,272.00
2024-05-09T02:55:46.283Z,272.00
2024-05-09T02:56:17.095Z,272.33
2024-05-09T02:56:47.819Z,273.67
2024-05-09T02:57:18.559Z,275.00
2024-05-09T02:57:49.293Z,275.00
2024-05-09T02:58:20.014Z,273.00
2024-05-09T02:58:50.783Z,269.33
2024-05-09T02:59:21.938Z,267.00
2024-05-09T02:59:52.715Z,265.33
2024-05-09T03:00:29.801Z,263.00
2024-05-09T03:01:08.173Z,258.33
2024-05-09T03:01:39.015Z,256.33
2024-05-09T03:02:09.858Z,255.67
2024-05-09T03:02:43.307Z,255.00
2024-05-09T03:03:15.657Z,254.33
2024-05-09T03:03:49.187Z,253.33
2024-05-09T03:04:20.039Z,255.00
2024-05-09T03:04:50.904Z,256.33
2024-05-09T03:05:21.773Z,257.33
2024-05-09T03:05:52.537Z,258.33
2024-05-09T03:06:23.274Z,259.33
2024-05-09T03:06:53.986Z,260.00
2024-05-09T03:07:24.709Z,260.00
2024-05-09T03:07:55.552Z,259.00
2024-05-09T03:08:26.948Z,255.33
2024-05-09T03:08:59.822Z,248.67
2024-05-09T03:09:30.553Z,243.00
2024-05-09T03:10:01.347Z,238.67
2024-05-09T03:10:35.804Z,237.33
2024-05-09T03:11:08.703Z,235.33
2024-05-09T03:11:39.579Z,234.67
2024-05-09T03:12:10.552Z,234.00
2024-05-09T03:12:41.388Z,233.67
2024-05-09T03:13:15.294Z,234.00
2024-05-09T03:13:47.006Z,235.33
2024-05-09T03:14:18.235Z,236.33
2024-05-09T03:14:49.555Z,237.00
2024-05-09T03:15:21.512Z,237.33
2024-05-09T03:15:52.251Z,238.00
2024-05-09T03:16:22.976Z,239.00
2024-05-09T03:16:53.729Z,239.33
2024-05-09T03:17:24.819Z,240.00
2024-05-09T03:17:55.963Z,239.67
2024-05-09T03:18:26.834Z,238.67
2024-05-09T03:18:57.754Z,237.33
2024-05-09T03:19:28.612Z,235.00
2024-05-09T03:20:00.732Z,233.00
2024-05-09T03:20:34.726Z,233.00
2024-05-09T03:21:07.360Z,233.00
2024-05-09T03:21:41.492Z,233.00
2024-05-09T03:22:12.212Z,233.00
2024-05-09T03:22:42.920Z,233.00
2024-05-09T03:23:13.765Z,233.00
2024-05-09T03:23:44.755Z,233.67
2024-05-09T03:24:15.523Z,234.00
2024-05-09T03:24:46.278Z,234.33
2024-05-09T03:25:17.030Z,235.00
2024-05-09T03:25:47.786Z,236.00
2024-05-09T03:26:18.605Z,238.33
2024-05-09T03:26:49.406Z,245.00
2024-05-09T03:27:20.145Z,252.33
2024-05-09T03:27:52.581Z,257.67
2024-05-09T03:28:23.303Z,259.67
2024-05-09T03:28:54.108Z,259.00
2024-05-09T03:29:25.062Z,258.00
2024-05-09T03:29:55.903Z,258.00
2024-05-09T03:30:36.032Z,258.00
2024-05-09T03:31:12.124Z,259.00
2024-05-09T03:31:42.912Z,259.00
2024-05-09T03:32:13.737Z,259.67
2024-05-09T03:32:44.783Z,262.00
2024-05-09T03:33:16.296Z,263.67
2024-05-09T03:33:47.280Z,266.00
2024-05-09T03:34:18.165Z,268.00
2024-05-09T03:34:48.954Z,267.67
2024-05-09T03:35:19.693Z,266.67
2024-05-09T03:35:50.501Z,265.67
2024-05-09T03:36:21.303Z,264.67
2024-05-09T03:36:52.052Z,263.67
2024-05-09T03:37:22.757Z,262.33
2024-05-09T03:37:53.508Z,261.00
2024-05-09T03:38:24.507Z,260.00
2024-05-09T03:38:55.241Z,259.33
2024-05-09T03:39:25.969Z,258.67
2024-05-09T03:39:56.692Z,258.00
2024-05-09T03:40:30.827Z,258.00
2024-05-09T03:41:02.135Z,258.00
2024-05-09T03:41:33.446Z,258.00
2024-05-09T03:42:04.276Z,258.00
2024-05-09T03:42:39.646Z,258.00
2024-05-09T03:43:10.376Z,258.00
2024-05-09T03:43:42.863Z,258.00
2024-05-09T03:44:13.662Z,258.00
2024-05-09T03:44:44.404Z,257.67
2024-05-09T03:45:15.697Z,257.00
2024-05-09T03:45:47.739Z,256.33
2024-05-09T03:46:18.452Z,255.33
2024-05-09T03:46:49.243Z,253.67
2024-05-09T03:47:20.270Z,251.00
2024-05-09T03:47:51.486Z,249.00
2024-05-09T03:48:22.600Z,248.00
2024-05-09T03:48:53.481Z,248.00
2024-05-09T03:49:24.747Z,248.00
2024-05-09T03:49:55.618Z,248.00
2024-05-09T03:50:33.588Z,248.00
2024-05-09T03:51:06.619Z,248.33
2024-05-09T03:51:37.426Z,249.00
2024-05-09T03:52:10.649Z,249.00
2024-05-09T03:52:41.392Z,249.00
2024-05-09T03:53:13.411Z,249.00
2024-05-09T03:53:44.390Z,250.00
2024-05-09T03:54:15.130Z,250.67
2024-05-09T03:54:46.387Z,251.00
2024-05-09T03:55:17.100Z,251.67
2024-05-09T03:55:48.270Z,252.00
2024-05-09T03:56:19.195Z,252.00
2024-05-09T03:56:49.968Z,252.00
2024-05-09T03:57:20.697Z,252.00
2024-05-09T03:57:51.441Z,252.00
2024-05-09T03:58:22.154Z,251.67
2024-05-09T03:58:53.584Z,250.00
2024-05-09T03:59:24.679Z,247.67
2024-05-09T03:59:55.451Z,246.33
2024-05-09T04:00:34.720Z,245.33
2024-05-09T04:01:09.172Z,245.33
2024-05-09T04:01:40.017Z,246.00
2024-05-09T04:02:10.921Z,246.00
2024-05-09T04:02:42.560Z,246.33
2024-05-09T04:03:13.728Z,247.00
2024-05-09T04:03:44.889Z,248.00
2024-05-09T04:04:15.816Z,248.33
2024-05-09T04:04:46.664Z,249.00
2024-05-09T04:05:17.505Z,249.00
2024-05-09T04:05:48.301Z,249.00
2024-05-09T04:06:22.961Z,249.00
2024-05-09T04:06:53.676Z,249.00
2024-05-09T04:07:24.416Z,248.33
2024-05-09T04:07:55.166Z,244.33
2024-05-09T04:08:25.912Z,232.00
2024-05-09T04:08:56.694Z,218.67
2024-05-09T04:09:27.567Z,212.33
2024-05-09T04:09:58.279Z,209.33
2024-05-09T04:10:33.339Z,209.33
2024-05-09T04:11:05.984Z,212.33
2024-05-09T04:11:36.818Z,214.67
2024-05-09T04:12:07.744Z,216.00
2024-05-09T04:12:38.543Z,218.00
2024-05-09T04:13:09.752Z,220.00
2024-05-09T04:13:40.472Z,221.67
2024-05-09T04:14:11.268Z,219.67
2024-05-09T04:14:42.038Z,201.33
2024-05-09T04:15:13.606Z,183.67
2024-05-09T04:15:44.445Z,177.00
2024-05-09T04:16:15.163Z,178.33
2024-05-09T04:16:45.916Z,180.33
2024-05-09T04:17:16.711Z,182.33
2024-05-09T04:17:50.217Z,187.67
2024-05-09T04:18:21.147Z,191.33
2024-05-09T04:18:52.075Z,191.33
2024-05-09T04:19:22.993Z,192.67
2024-05-09T04:19:54.024Z,195.00
2024-05-09T04:20:35.571Z,197.67
2024-05-09T04:21:09.744Z,199.67
2024-05-09T04:21:40.611Z,202.33
2024-05-09T04:22:11.349Z,206.67
2024-05-09T04:22:42.262Z,210.00
2024-05-09T04:23:13.874Z,211.67
2024-05-09T04:23:45.117Z,213.33
2024-05-09T04:24:15.910Z,215.33
2024-05-09T04:24:47.453Z,218.33
2024-05-09T04:25:18.184Z,222.33
2024-05-09T04:25:48.966Z,226.00
2024-05-09T04:26:19.797Z,229.00
2024-05-09T04:26:50.514Z,231.33
2024-05-09T04:27:21.402Z,234.00
2024-05-09T04:27:54.540Z,238.00
2024-05-09T04:28:25.341Z,243.67
2024-05-09T04:28:56.079Z,246.67
2024-05-09T04:29:26.945Z,247.67
2024-05-09T04:29:57.765Z,245.00
2024-05-09T04:30:35.017Z,240.67
2024-05-09T04:31:09.760Z,237.67
2024-05-09T04:31:40.491Z,226.00
2024-05-09T04:32:11.291Z,194.67
2024-05-09T04:32:42.716Z,174.00
2024-05-09T04:33:14.682Z,163.67
2024-05-09T04:33:46.131Z,159.33
2024-05-09T04:34:17.158Z,157.00
2024-05-09T04:34:48.071Z,156.67
2024-05-09T04:35:21.211Z,160.00
2024-05-09T04:35:52.134Z,164.67
2024-05-09T04:36:22.850Z,167.00
2024-05-09T04:36:53.577Z,167.00
2024-05-09T04:37:25.175Z,163.33
2024-05-09T04:37:55.900Z,159.00
2024-05-09T04:38:28.516Z,156.67
2024-05-09T04:38:59.243Z,153.67
2024-05-09T04:39:29.966Z,144.00
2024-05-09T04:40:00.682Z,127.67
2024-05-09T04:40:35.068Z,110.67
2024-05-09T04:41:07.604Z,100.33
2024-05-09T04:41:38.356Z,95.00
2024-05-09T04:42:09.094Z,89.00
2024-05-09T04:42:40.445Z,83.00
2024-05-09T04:43:15.931Z,80.33
2024-05-09T04:43:49.650Z,79.33
2024-05-09T04:44:20.445Z,78.00
2024-05-09T04:44:52.046Z,74.33
2024-05-09T04:45:23.724Z,72.00
2024-05-09T04:45:54.449Z,70.33
2024-05-09T04:46:25.166Z,70.33
2024-05-09T04:46:55.905Z,71.00
2024-05-09T04:47:26.805Z,69.67
2024-05-09T04:47:58.229Z,64.00
2024-05-09T04:48:29.269Z,60.00
2024-05-09T04:49:00.165Z,59.00
2024-05-09T04:49:31.139Z,60.00
2024-05-09T04:50:05.617Z,62.00
2024-05-09T04:50:38.889Z,63.67
2024-05-09T04:51:10.621Z,65.00
2024-05-09T04:51:41.529Z,67.00
2024-05-09T04:52:12.352Z,69.33
2024-05-09T04:52:43.086Z,70.67
2024-05-09T04:53:15.275Z,73.00
2024-05-09T04:53:46.207Z,75.33
2024-05-09T04:54:26.186Z,76.67
2024-05-09T04:55:04.998Z,77.00
2024-05-09T04:55:35.710Z,77.00
2024-05-09T04:56:07.609Z,77.00
2024-05-09T04:56:38.432Z,76.67
2024-05-09T04:57:09.185Z,74.00
2024-05-09T04:57:39.891Z,70.00
2024-05-09T04:58:10.809Z,67.33
2024-05-09T04:58:41.510Z,67.00
2024-05-09T04:59:12.350Z,68.33
2024-05-09T04:59:43.130Z,69.00
2024-05-09T05:00:15.036Z,68.00
2024-05-09T05:00:52.474Z,64.00
2024-05-09T05:01:23.260Z,61.67
2024-05-09T05:01:54.162Z,61.67
2024-05-09T05:02:25.182Z,61.33
2024-05-09T05:02:56.070Z,59.00
2024-05-09T05:03:27.092Z,55.00
2024-05-09T05:03:58.117Z,53.67
2024-05-09T05:04:28.983Z,53.33
2024-05-09T05:04:59.853Z,54.33
2024-05-09T05:05:30.661Z,55.33
2024-05-09T05:06:04.460Z,56.33
2024-05-09T05:06:35.202Z,57.00
2024-05-09T05:07:05.933Z,58.00
2024-05-09T05:07:36.694Z,58.33
2024-05-09T05:08:11.267Z,59.00
2024-05-09T05:08:50.592Z,59.33
2024-05-09T05:09:21.324Z,60.00
2024-05-09T05:09:52.058Z,60.00
2024-05-09T05:10:32.902Z,60.00
2024-05-09T05:11:06.425Z,59.33
2024-05-09T05:11:37.274Z,58.33
2024-05-09T05:12:28.140Z,57.67
2024-05-09T05:13:18.712Z,58.00
2024-05-09T05:13:50.188Z,58.00
2024-05-09T05:14:20.970Z,55.67
2024-05-09T05:14:51.694Z,51.33
2024-05-09T05:15:22.420Z,56.33
2024-05-09T05:15:54.797Z,153.67
2024-05-09T05:16:25.518Z,352.33
2024-05-09T05:16:56.477Z,385.00
2024-05-09T05:17:27.392Z,321.33
2024-05-09T05:17:58.367Z,262.67
2024-05-09T05:18:29.603Z,216.67
2024-05-09T05:19:00.514Z,184.33
2024-05-09T05:19:31.497Z,162.00
2024-05-09T05:20:02.744Z,150.33
2024-05-09T05:20:34.387Z,133.33
2024-05-09T05:21:05.339Z,108.67
2024-05-09T05:21:36.110Z,99.67
2024-05-09T05:22:09.432Z,96.00
2024-05-09T05:22:42.057Z,93.00
2024-05-09T05:23:19.080Z,89.00
2024-05-09T05:23:49.953Z,80.33
2024-05-09T05:24:20.808Z,80.33
2024-05-09T05:24:51.545Z,81.67
2024-05-09T05:25:22.291Z,77.00
2024-05-09T05:25:54.118Z,68.33
2024-05-09T05:26:25.209Z,58.00
2024-05-09T05:26:55.986Z,49.67
2024-05-09T05:27:26.712Z,43.33
2024-05-09T05:27:57.432Z,40.33
2024-05-09T05:28:28.150Z,40.00
2024-05-09T05:28:58.942Z,40.00
2024-05-09T05:29:32.242Z,40.00
2024-05-09T05:30:05.881Z,38.67
2024-05-09T05:30:40.604Z,37.00
2024-05-09T05:31:11.540Z,36.00
2024-05-09T05:31:42.267Z,35.67
2024-05-09T05:32:13.232Z,37.00
2024-05-09T05:32:44.213Z,38.67
2024-05-09T05:33:17.140Z,39.67
2024-05-09T05:33:48.071Z,40.67
2024-05-09T05:34:18.828Z,42.33
2024-05-09T05:34:49.546Z,44.00
2024-05-09T05:35:20.348Z,47.67
2024-05-09T05:35:51.196Z,51.00
2024-05-09T05:36:22.400Z,53.33
2024-05-09T05:36:53.151Z,57.67
2024-05-09T05:37:23.885Z,60.00
2024-05-09T05:37:54.693Z,59.00
2024-05-09T05:38:28.128Z,52.00
2024-05-09T05:38:59.377Z,40.00
2024-05-09T05:39:30.085Z,33.67
2024-05-09T05:40:00.912Z,33.33
2024-05-09T05:40:36.117Z,35.00
2024-05-09T05:41:09.230Z,38.33
2024-05-09T05:41:39.991Z,39.33
2024-05-09T05:42:10.903Z,40.33
2024-05-09T05:42:41.853Z,41.67
2024-05-09T05:43:17.244Z,42.67
2024-05-09T05:43:48.054Z,43.67
2024-05-09T05:44:18.845Z,44.33
2024-05-09T05:44:49.632Z,45.00
2024-05-09T05:45:20.366Z,45.67
2024-05-09T05:45:51.072Z,48.00
2024-05-09T05:46:21.847Z,51.67
2024-05-09T05:46:52.605Z,54.33
2024-05-09T05:47:23.656Z,56.00
2024-05-09T05:47:54.860Z,56.00
2024-05-09T05:48:25.918Z,56.00
2024-05-09T05:48:56.870Z,55.33
2024-05-09T05:49:27.792Z,54.00
2024-05-09T05:49:58.638Z,52.00
2024-05-09T05:50:35.491Z,49.00
2024-05-09T05:51:08.314Z,47.33
2024-05-09T05:51:39.055Z,47.00
2024-05-09T05:52:10.068Z,47.00
2024-05-09T05:52:40.809Z,47.00
2024-05-09T05:53:12.038Z,47.00
2024-05-09T05:53:43.639Z,47.67
2024-05-09T05:54:14.407Z,48.00
2024-05-09T05:54:47.424Z,48.33
2024-05-09T05:55:18.149Z,49.33
2024-05-09T05:55:48.915Z,50.33
2024-05-09T05:56:19.671Z,51.00
2024-05-09T05:56:50.509Z,50.33
2024-05-09T05:57:21.212Z,50.00
2024-05-09T05:57:51.987Z,50.00
2024-05-09T05:58:22.701Z,50.00
2024-05-09T05:58:53.450Z,50.00
2024-05-09T05:59:24.242Z,50.00
2024-05-09T05:59:54.977Z,49.33
2024-05-09T06:00:30.307Z,48.33
2024-05-09T06:01:08.236Z,46.00
2024-05-09T06:01:39.068Z,44.00
2024-05-09T06:02:10.244Z,40.67
2024-05-09T06:02:41.302Z,36.33
2024-05-09T06:03:13.148Z,32.00
2024-05-09T06:03:44.693Z,29.33
2024-05-09T06:04:15.578Z,28.67
2024-05-09T06:04:46.358Z,27.67
2024-05-09T06:05:17.234Z,26.00
2024-05-09T06:05:48.072Z,24.00
2024-05-09T06:06:18.830Z,21.67
2024-05-09T06:06:49.583Z,20.33
2024-05-09T06:07:20.312Z,20.00
2024-05-09T06:07:51.061Z,19.67
2024-05-09T06:08:21.964Z,20.00
2024-05-09T06:08:53.700Z,19.67
2024-05-09T06:09:24.417Z,18.67
2024-05-09T06:09:55.211Z,17.67
2024-05-09T06:10:30.599Z,17.00
2024-05-09T06:11:08.545Z,17.00
2024-05-09T06:11:42.072Z,17.00
2024-05-09T06:12:13.020Z,17.00
2024-05-09T06:12:43.844Z,18.00
2024-05-09T06:13:14.694Z,18.00
2024-05-09T06:13:45.533Z,18.00
2024-05-09T06:14:16.296Z,17.00
2024-05-09T06:14:47.018Z,16.67
2024-05-09T06:15:17.739Z,16.00
2024-05-09T06:15:48.492Z,15.67
2024-05-09T06:16:21.851Z,15.00
2024-05-09T06:16:54.704Z,15.00
2024-05-09T06:17:26.859Z,14.00
2024-05-09T06:17:57.933Z,13.67
2024-05-09T06:18:28.981Z,13.00
2024-05-09T06:18:59.951Z,13.00
2024-05-09T06:19:30.974Z,13.00
2024-05-09T06:20:01.950Z,13.00
2024-05-09T06:20:36.367Z,13.00
2024-05-09T06:21:08.885Z,13.00
2024-05-09T06:21:39.632Z,13.00
2024-05-09T06:22:10.352Z,12.33
2024-05-09T06:22:41.091Z,12.00
2024-05-09T06:23:13.271Z,12.00
2024-05-09T06:23:48.473Z,12.00
2024-05-09T06:24:19.393Z,12.00
2024-05-09T06:24:50.124Z,12.00
2024-05-09T06:25:20.851Z,12.00
2024-05-09T06:25:51.588Z,12.00
2024-05-09T06:26:22.405Z,12.00
2024-05-09T06:26:53.197Z,12.00
2024-05-09T06:27:23.924Z,13.00
2024-05-09T06:27:54.678Z,13.00
2024-05-09T06:28:25.399Z,13.00
2024-05-09T06:28:56.449Z,13.00
2024-05-09T06:29:27.244Z,13.33
2024-05-09T06:29:57.986Z,14.00
2024-05-09T06:30:35.216Z,15.00
2024-05-09T06:31:10.076Z,15.67
2024-05-09T06:31:41.705Z,16.33
2024-05-09T06:32:12.472Z,17.00
2024-05-09T06:32:43.416Z,17.33
2024-05-09T06:33:16.102Z,18.00
2024-05-09T06:33:47.757Z,18.00
2024-05-09T06:34:18.787Z,18.00
2024-05-09T06:34:49.765Z,18.00
2024-05-09T06:35:20.550Z,18.00
2024-05-09T06:35:53.746Z,18.67
2024-05-09T06:36:24.467Z,19.00
2024-05-09T06:36:55.174Z,19.67
2024-05-09T06:37:25.887Z,20.00
2024-05-09T06:37:56.646Z,20.00
2024-05-09T06:38:27.867Z,20.00
2024-05-09T06:38:58.671Z,20.67
2024-05-09T06:39:29.403Z,21.00
2024-05-09T06:40:00.156Z,21.00
2024-05-09T06:40:36.966Z,21.00
2024-05-09T06:41:10.037Z,21.00